Time;durP1;ratioP1;P1;durP2;ratioP2;P2;SDS_P1;SDS_P2;PMS_P1;PMS_P2;Temp;Humidity;BMP_temperature;BMP_pressure;BME280_temperature;BME280_humidity;BME280_pressure;Samples;Min_cycle;Max_cycle;Signal;HPM_P1;HPM_P2
2022/03/24 00:00:03;;;;;;;;;;;;;;;;;;5101964;28;1116;-75
2022/03/24 00:02:29;;;;;;;;;;;;;;;;;;5085382;28;1377;-74
2022/03/24 00:04:57;;;;;;;;;;;;;;;;;;5085168;28;1121;-74
2022/03/24 00:07:22;;;;;;;;;;;;;;;;;;5070373;28;1511;-75
2022/03/24 00:09:47;;;;;;;;;;;;;;;;;;5097932;28;1143;-74
2022/03/24 00:12:13;;;;;;;;;;;;;;;;;;5108340;28;1147;-74
2022/03/24 00:14:38;;;;;;;;;;;;;;;;;;5101557;28;1198;-75
2022/03/24 00:17:04;;;;;;;;;;;;;;;;;;5107716;28;1961;-74
2022/03/24 00:19:30;;;;;;;;;;;;;;;;;;5070088;28;1328;-75
2022/03/24 00:21:56;;;;;;;;;;;;;;;;;;5054628;28;1232;-75
2022/03/24 00:24:21;;;;;;;;;;;;;;;;;;5064667;28;1223;-74
2022/03/24 00:26:47;;;;;;;;;;;;;;;;;;5052154;28;1275;-74
2022/03/24 00:29:21;;;;;;;;;;;;;;;;;;5051989;28;1585;-74
2022/03/24 00:31:46;;;;;;;;;;;;;;;;;;5069201;28;1163;-74
2022/03/24 00:34:11;;;;;;;;;;;;;;;;;;5087843;28;1255;-74
2022/03/24 00:36:37;;;;;;;;;;;;;;;;;;5068804;28;1980;-73
2022/03/24 00:39:03;;;;;;;;;;;;;;;;;;5067254;28;1132;-75
2022/03/24 00:41:29;;;;;;;;;;;;;;;;;;5067715;28;1211;-74
2022/03/24 00:43:56;;;;;;;;;;;;;;;;;;5049929;28;1219;-75
2022/03/24 00:46:22;;;;;;;;;;;;;;;;;;5051007;28;1410;-74
2022/03/24 00:48:48;;;;;;;;;;;;;;;;;;5084498;28;1136;-74
2022/03/24 00:51:15;;;;;;;;;;;;;;;;;;5068823;28;1269;-74
2022/03/24 00:53:41;;;;;;;;;;;;;;;;;;5081812;28;1124;-74
2022/03/24 00:56:06;;;;;;;;;;;;;;;;;;5066053;28;1965;-74
2022/03/24 00:58:32;;;;;;;;;;;;;;;;;;5066510;28;1141;-74
2022/03/24 01:00:57;;;;;;;;;;;;;;;;;;5049429;28;1247;-74
2022/03/24 01:03:23;;;;;;;;;;;;;;;;;;5069667;28;1168;-75
2022/03/24 01:05:48;;;;;;;;;;;;;;;;;;5065522;28;1187;-75
2022/03/24 01:08:16;;;;;;;;;;;;;;;;;;5065239;28;1203;-74
2022/03/24 01:10:42;;;;;;;;;;;;;;;;;;5081693;28;1147;-75
2022/03/24 01:13:08;;;;;;;;;;;;;;;;;;5066444;28;1202;-74
2022/03/24 01:15:34;;;;;;;;;;;;;;;;;;5063518;28;1428;-74
2022/03/24 01:18:00;;;;;;;;;;;;;;;;;;5049703;28;1957;-74
2022/03/24 01:20:26;;;;;;;;;;;;;;;;;;5049285;28;1132;-74
2022/03/24 01:22:52;;;;;;;;;;;;;;;;;;5048716;28;1243;-74
2022/03/24 01:25:17;;;;;;;;;;;;;;;;;;5080033;28;1088;-75
2022/03/24 01:27:42;;;;;;;;;;;;;;;;;;5083603;28;1207;-75
2022/03/24 01:30:09;;;;;;;;;;;;;;;;;;5082197;28;1179;-74
2022/03/24 01:32:35;;;;;;;;;;;;;;;;;;5082539;28;1368;-75
2022/03/24 01:35:01;;;;;;;;;;;;;;;;;;5065468;28;1175;-75
2022/03/24 01:37:26;;;;;;;;;;;;;;;;;;5093459;28;1902;-74
2022/03/24 01:39:52;;;;;;;;;;;;;;;;;;5080014;28;1064;-72
2022/03/24 01:42:18;;;;;;;;;;;;;;;;;;5070800;28;1391;-74
2022/03/24 01:44:47;;;;;;;;;;;;;;;;;;5101067;28;1052;-74
2022/03/24 01:47:13;;;;;;;;;;;;;;;;;;5088263;28;1190;-74
2022/03/24 01:49:43;;;;;;;;;;;;;;;;;;5084443;28;1415;-73
2022/03/24 01:52:10;;;;;;;;;;;;;;;;;;5104649;28;1172;-74
2022/03/24 01:54:38;;;;;;;;;;;;;;;;;;5080757;28;1357;-74
2022/03/24 01:57:04;;;;;;;;;;;;;;;;;;5107357;28;1886;-74
2022/03/24 01:59:30;;;;;;;;;;;;;;;;;;5086846;28;1179;-74
2022/03/24 02:01:55;;;;;;;;;;;;;;;;;;5103850;28;1147;-75
2022/03/24 02:04:21;;;;;;;;;;;;;;;;;;5086516;28;1242;-73
2022/03/24 02:06:46;;;;;;;;;;;;;;;;;;5103416;28;1154;-73
2022/03/24 02:09:13;;;;;;;;;;;;;;;;;;5090172;28;1155;-73
2022/03/24 02:11:39;;;;;;;;;;;;;;;;;;5067575;28;1262;-74
2022/03/24 02:14:05;;;;;;;;;;;;;;;;;;5084569;28;1187;-74
2022/03/24 02:16:34;;;;;;;;;;;;;;;;;;5052728;28;2000;-75
2022/03/24 02:19:07;;;;;;;;;;;;;;;;;;5055129;28;1330;-75
2022/03/24 02:21:33;;;;;;;;;;;;;;;;;;5089255;28;992;-74
2022/03/24 02:23:59;;;;;;;;;;;;;;;;;;5065254;28;1289;-74
2022/03/24 02:26:25;;;;;;;;;;;;;;;;;;5070633;28;1179;-74
2022/03/24 02:28:54;;;;;;;;;;;;;;;;;;5102876;28;1167;-74
2022/03/24 02:31:20;;;;;;;;;;;;;;;;;;5058488;28;1289;-73
2022/03/24 02:33:45;;;;;;;;;;;;;;;;;;5063765;28;1155;-74
2022/03/24 02:36:11;;;;;;;;;;;;;;;;;;5084149;28;1976;-74
2022/03/24 02:38:37;;;;;;;;;;;;;;;;;;5049423;28;1197;-75
2022/03/24 02:41:02;;;;;;;;;;;;;;;;;;5064838;28;1194;-74
2022/03/24 02:43:28;;;;;;;;;;;;;;;;;;5084867;28;1104;-74
2022/03/24 02:45:57;;;;;;;;;;;;;;;;;;5079085;28;1163;-73
2022/03/24 02:48:22;;;;;;;;;;;;;;;;;;5081576;28;1091;-74
2022/03/24 02:50:48;;;;;;;;;;;;;;;;;;5064368;28;1243;-74
2022/03/24 02:53:14;;;;;;;;;;;;;;;;;;5066686;28;1334;-74
2022/03/24 02:55:40;;;;;;;;;;;;;;;;;;5082968;28;1136;-73
2022/03/24 02:58:05;;;;;;;;;;;;;;;;;;5064480;28;1949;-74
2022/03/24 03:00:31;;;;;;;;;;;;;;;;;;5064386;28;1172;-74
2022/03/24 03:02:57;;;;;;;;;;;;;;;;;;5078046;28;1116;-75
2022/03/24 03:05:22;;;;;;;;;;;;;;;;;;5086700;28;1212;-74
2022/03/24 03:07:48;;;;;;;;;;;;;;;;;;5083300;28;1271;-74
2022/03/24 03:10:13;;;;;;;;;;;;;;;;;;5092453;28;1151;-75
2022/03/24 03:12:39;;;;;;;;;;;;;;;;;;5083814;28;1057;-75
2022/03/24 03:15:05;;;;;;;;;;;;;;;;;;5047975;28;1113;-74
2022/03/24 03:17:30;;;;;;;;;;;;;;;;;;5077625;28;1977;-75
2022/03/24 03:19:56;;;;;;;;;;;;;;;;;;5064001;28;1164;-74
2022/03/24 03:22:22;;;;;;;;;;;;;;;;;;5083895;28;1209;-75
2022/03/24 03:24:47;;;;;;;;;;;;;;;;;;5082954;28;1191;-75
2022/03/24 03:27:12;;;;;;;;;;;;;;;;;;5065263;28;1148;-74
2022/03/24 03:29:38;;;;;;;;;;;;;;;;;;5085113;28;1242;-74
2022/03/24 03:32:04;;;;;;;;;;;;;;;;;;5079926;28;1080;-74
2022/03/24 03:34:29;;;;;;;;;;;;;;;;;;5086891;28;1379;-73
2022/03/24 03:36:55;;;;;;;;;;;;;;;;;;5083562;28;1913;-74
2022/03/24 03:39:21;;;;;;;;;;;;;;;;;;5105461;28;1155;-74
2022/03/24 03:41:46;;;;;;;;;;;;;;;;;;5102778;28;1155;-74
2022/03/24 03:44:11;;;;;;;;;;;;;;;;;;5070050;28;1264;-74
2022/03/24 03:46:36;;;;;;;;;;;;;;;;;;5095920;28;1084;-74
2022/03/24 03:49:02;;;;;;;;;;;;;;;;;;5103308;28;1128;-74
2022/03/24 03:51:29;;;;;;;;;;;;;;;;;;5087337;28;1185;-74
2022/03/24 03:53:55;;;;;;;;;;;;;;;;;;5072698;28;1528;-74
2022/03/24 03:56:21;;;;;;;;;;;;;;;;;;5069542;28;1890;-74
2022/03/24 03:58:47;;;;;;;;;;;;;;;;;;5078337;28;1179;-73
2022/03/24 04:01:12;;;;;;;;;;;;;;;;;;5069356;28;1152;-74
2022/03/24 04:03:38;;;;;;;;;;;;;;;;;;5089567;28;1176;-74
2022/03/24 04:06:05;;;;;;;;;;;;;;;;;;5088182;28;1083;-74
2022/03/24 04:08:31;;;;;;;;;;;;;;;;;;5088834;28;1120;-74
2022/03/24 04:10:56;;;;;;;;;;;;;;;;;;5085920;28;1171;-74
2022/03/24 04:13:22;;;;;;;;;;;;;;;;;;5089030;28;1341;-74
2022/03/24 04:15:49;;;;;;;;;;;;;;;;;;5066466;28;1148;-74
2022/03/24 04:18:15;;;;;;;;;;;;;;;;;;5066037;28;1327;-74
2022/03/24 04:20:40;;;;;;;;;;;;;;;;;;5086508;28;1105;-75
2022/03/24 04:23:05;;;;;;;;;;;;;;;;;;5068146;28;1223;-73
2022/03/24 04:25:32;;;;;;;;;;;;;;;;;;5069806;28;1156;-73
2022/03/24 04:27:57;;;;;;;;;;;;;;;;;;5067205;28;1200;-73
2022/03/24 04:30:22;;;;;;;;;;;;;;;;;;5053003;28;1296;-74
2022/03/24 04:32:48;;;;;;;;;;;;;;;;;;5079307;28;1231;-73
2022/03/24 04:35:15;;;;;;;;;;;;;;;;;;5088972;28;1348;-75
2022/03/24 04:37:41;;;;;;;;;;;;;;;;;;5106256;28;1989;-74
2022/03/24 04:40:06;;;;;;;;;;;;;;;;;;5069943;28;1204;-74
2022/03/24 04:42:32;;;;;;;;;;;;;;;;;;5071884;28;1455;-74
2022/03/24 04:44:58;;;;;;;;;;;;;;;;;;5089137;28;1104;-74
2022/03/24 04:47:24;;;;;;;;;;;;;;;;;;5083777;28;1397;-73
2022/03/24 04:49:50;;;;;;;;;;;;;;;;;;5107664;28;1191;-74
2022/03/24 04:52:15;;;;;;;;;;;;;;;;;;5070947;28;1227;-75
2022/03/24 04:54:41;;;;;;;;;;;;;;;;;;5054254;28;1437;-75
2022/03/24 04:57:06;;;;;;;;;;;;;;;;;;5050451;28;1930;-74
2022/03/24 04:59:31;;;;;;;;;;;;;;;;;;5077260;28;1184;-74
2022/03/24 05:01:57;;;;;;;;;;;;;;;;;;5104913;27;1471;-74
2022/03/24 05:04:24;;;;;;;;;;;;;;;;;;5052439;28;1515;-74
2022/03/24 05:06:50;;;;;;;;;;;;;;;;;;5084989;28;1207;-74
2022/03/24 05:09:16;;;;;;;;;;;;;;;;;;5068220;28;1329;-74
2022/03/24 05:11:41;;;;;;;;;;;;;;;;;;5065731;28;1187;-74
2022/03/24 05:14:08;;;;;;;;;;;;;;;;;;5066527;28;1247;-74
2022/03/24 05:16:33;;;;;;;;;;;;;;;;;;5055060;28;1921;-74
2022/03/24 05:18:58;;;;;;;;;;;;;;;;;;5103710;28;1124;-73
2022/03/24 05:21:24;;;;;;;;;;;;;;;;;;5088440;28;1207;-74
2022/03/24 05:23:50;;;;;;;;;;;;;;;;;;5107266;28;1183;-74
2022/03/24 05:26:20;;;;;;;;;;;;;;;;;;5087312;28;1206;-74
2022/03/24 05:28:46;;;;;;;;;;;;;;;;;;5089403;28;1329;-74
2022/03/24 05:31:11;;;;;;;;;;;;;;;;;;5048267;28;1171;-73
2022/03/24 05:33:36;;;;;;;;;;;;;;;;;;5066982;28;1356;-73
2022/03/24 05:36:02;;;;;;;;;;;;;;;;;;5065440;28;1902;-74
2022/03/24 05:38:28;;;;;;;;;;;;;;;;;;5086482;28;1262;-74
2022/03/24 05:40:54;;;;;;;;;;;;;;;;;;5085532;28;1179;-74
2022/03/24 05:43:19;;;;;;;;;;;;;;;;;;5063146;28;1133;-73
2022/03/24 05:45:44;;;;;;;;;;;;;;;;;;5087025;28;1260;-73
2022/03/24 05:48:10;;;;;;;;;;;;;;;;;;5059306;28;1146;-73
2022/03/24 05:50:35;;;;;;;;;;;;;;;;;;5088901;28;1184;-74
2022/03/24 05:53:01;;;;;;;;;;;;;;;;;;5071566;28;1372;-74
2022/03/24 05:55:26;;;;;;;;;;;;;;;;;;5106536;28;1044;-74
2022/03/24 05:58:01;;;;;;;;;;;;;;;;;;5072159;27;1937;-74
2022/03/24 06:00:28;;;;;;;;;;;;;;;;;;5071765;28;1295;-74
2022/03/24 06:02:54;;;;;;;;;;;;;;;;;;5084726;28;1240;-74
2022/03/24 06:05:20;;;;;;;;;;;;;;;;;;5090425;28;1227;-74
2022/03/24 06:07:46;;;;;;;;;;;;;;;;;;5087888;28;1214;-74
2022/03/24 06:10:12;;;;;;;;;;;;;;;;;;5098113;28;1148;-75
2022/03/24 06:12:37;;;;;;;;;;;;;;;;;;5091492;28;1290;-75
2022/03/24 06:15:04;;;;;;;;;;;;;;;;;;5085137;28;1092;-75
2022/03/24 06:17:29;;;;;;;;;;;;;;;;;;5064191;28;1925;-75
2022/03/24 06:19:58;;;;;;;;;;;;;;;;;;5069958;28;1314;-75
2022/03/24 06:22:23;;;;;;;;;;;;;;;;;;5061083;28;1146;-74
2022/03/24 06:24:48;;;;;;;;;;;;;;;;;;5107288;28;1222;-74
2022/03/24 06:27:17;;;;;;;;;;;;;;;;;;5085160;28;1178;-74
2022/03/24 06:29:43;;;;;;;;;;;;;;;;;;5088254;28;1305;-74
2022/03/24 06:32:08;;;;;;;;;;;;;;;;;;5097608;28;1104;-75
2022/03/24 06:34:33;;;;;;;;;;;;;;;;;;5106301;28;1238;-75
2022/03/24 06:36:59;;;;;;;;;;;;;;;;;;5080318;28;1974;-75
2022/03/24 06:39:24;;;;;;;;;;;;;;;;;;5051960;28;1401;-75
2022/03/24 06:41:50;;;;;;;;;;;;;;;;;;5085954;28;1265;-75
2022/03/24 06:44:16;;;;;;;;;;;;;;;;;;5067802;28;1244;-74
2022/03/24 06:46:41;;;;;;;;;;;;;;;;;;5060920;28;1375;-74
2022/03/24 06:49:06;;;;;;;;;;;;;;;;;;5066075;28;1160;-74
2022/03/24 06:51:32;;;;;;;;;;;;;;;;;;5066028;28;1128;-75
2022/03/24 06:53:58;;;;;;;;;;;;;;;;;;5049915;28;1290;-75
2022/03/24 06:56:24;;;;;;;;;;;;;;;;;;5064138;28;1929;-74
2022/03/24 06:58:50;;;;;;;;;;;;;;;;;;5086707;28;1235;-74
2022/03/24 07:01:17;;;;;;;;;;;;;;;;;;5059942;28;1331;-74
2022/03/24 07:03:42;;;;;;;;;;;;;;;;;;5050242;28;1305;-74
2022/03/24 07:06:08;;;;;;;;;;;;;;;;;;5083190;28;1353;-75
2022/03/24 07:08:33;;;;;;;;;;;;;;;;;;5068101;28;1215;-74
2022/03/24 07:11:05;;;;;;;;;;;;;;;;;;5066221;28;1318;-74
2022/03/24 07:13:31;;;;;;;;;;;;;;;;;;5086049;28;1025;-74
2022/03/24 07:15:56;;;;;;;;;;;;;;;;;;5050153;28;1348;-74
2022/03/24 07:18:21;;;;;;;;;;;;;;;;;;5084778;28;1879;-74
2022/03/24 07:20:47;;;;;;;;;;;;;;;;;;5106784;28;1155;-75
2022/03/24 07:23:12;;;;;;;;;;;;;;;;;;5087893;28;1059;-74
2022/03/24 07:25:37;;;;;;;;;;;;;;;;;;5087579;28;1309;-74
2022/03/24 07:28:05;;;;;;;;;;;;;;;;;;5086275;28;1265;-74
2022/03/24 07:30:31;;;;;;;;;;;;;;;;;;5069621;28;1144;-74
2022/03/24 07:33:00;;;;;;;;;;;;;;;;;;5064346;28;1196;-74
2022/03/24 07:35:27;;;;;;;;;;;;;;;;;;5071293;28;1152;-74
2022/03/24 07:37:53;;;;;;;;;;;;;;;;;;5071107;28;1901;-74
2022/03/24 07:40:21;;;;;;;;;;;;;;;;;;5066735;28;1144;-74
2022/03/24 07:42:46;;;;;;;;;;;;;;;;;;5066902;28;1302;-74
2022/03/24 07:45:12;;;;;;;;;;;;;;;;;;5065543;28;1144;-74
2022/03/24 07:47:57;;;;;;;;;;;;;;;;;;5073284;28;1314;-74
2022/03/24 07:50:22;;;;;;;;;;;;;;;;;;5102457;28;1107;-74
2022/03/24 07:52:51;;;;;;;;;;;;;;;;;;5086318;28;1203;-75
2022/03/24 07:55:18;;;;;;;;;;;;;;;;;;5086392;28;1115;-75
2022/03/24 07:57:43;;;;;;;;;;;;;;;;;;5080584;28;1953;-75
2022/03/24 08:00:09;;;;;;;;;;;;;;;;;;5065173;28;1143;-73
2022/03/24 08:02:41;;;;;;;;;;;;;;;;;;5077150;28;1222;-74
2022/03/24 08:05:10;;;;;;;;;;;;;;;;;;5065329;28;1381;-73
2022/03/24 08:07:35;;;;;;;;;;;;;;;;;;5065449;28;1184;-74
2022/03/24 08:10:00;;;;;;;;;;;;;;;;;;5091400;28;1204;-73
2022/03/24 08:12:26;;;;;;;;;;;;;;;;;;5081956;28;1096;-73
2022/03/24 08:14:51;;;;;;;;;;;;;;;;;;5050416;28;1267;-74
2022/03/24 08:17:16;;;;;;;;;;;;;;;;;;5057380;28;1943;-73
2022/03/24 08:19:41;;;;;;;;;;;;;;;;;;5045071;28;1286;-73
2022/03/24 08:22:13;;;;;;;;;;;;;;;;;;5044296;28;1203;-73
2022/03/24 08:24:38;;;;;;;;;;;;;;;;;;5056928;28;1312;-73
2022/03/24 08:27:07;;;;;;;;;;;;;;;;;;5080745;28;1171;-73
2022/03/24 08:29:33;;;;;;;;;;;;;;;;;;5088033;28;1306;-72
2022/03/24 08:31:58;;;;;;;;;;;;;;;;;;5082361;28;1160;-74
2022/03/24 08:34:23;;;;;;;;;;;;;;;;;;5072000;28;1362;-73
2022/03/24 08:36:48;;;;;;;;;;;;;;;;;;5069624;28;1978;-73
2022/03/24 08:39:14;;;;;;;;;;;;;;;;;;5088417;28;1219;-74
2022/03/24 08:41:39;;;;;;;;;;;;;;;;;;5073520;28;1314;-74
2022/03/24 08:44:05;;;;;;;;;;;;;;;;;;5090842;28;1429;-74
2022/03/24 08:46:31;;;;;;;;;;;;;;;;;;5068322;28;1268;-75
2022/03/24 08:48:56;;;;;;;;;;;;;;;;;;5069474;28;1228;-75
2022/03/24 08:51:22;;;;;;;;;;;;;;;;;;5070056;28;1184;-74
2022/03/24 08:53:48;;;;;;;;;;;;;;;;;;5089034;28;1453;-73
2022/03/24 08:56:13;;;;;;;;;;;;;;;;;;5088255;28;1886;-73
2022/03/24 08:58:39;;;;;;;;;;;;;;;;;;5107002;28;1361;-73
2022/03/24 09:01:04;;;;;;;;;;;;;;;;;;5104465;28;1155;-73
2022/03/24 09:03:30;;;;;;;;;;;;;;;;;;5052843;28;1187;-72
2022/03/24 09:05:55;;;;;;;;;;;;;;;;;;5052963;28;1191;-73
2022/03/24 09:08:20;;;;;;;;;;;;;;;;;;5050901;28;1224;-74
2022/03/24 09:10:47;;;;;;;;;;;;;;;;;;5070034;28;1251;-75
2022/03/24 09:13:12;;;;;;;;;;;;;;;;;;5067730;28;1215;-72
2022/03/24 09:15:38;;;;;;;;;;;;;;;;;;5049979;28;1302;-74
2022/03/24 09:18:05;;;;;;;;;;;;;;;;;;5082856;28;1906;-74
2022/03/24 09:20:30;;;;;;;;;;;;;;;;;;5049753;28;1443;-73
2022/03/24 09:22:55;;;;;;;;;;;;;;;;;;5088098;28;1140;-74
2022/03/24 09:25:20;;;;;;;;;;;;;;;;;;5050206;28;1356;-74
2022/03/24 09:27:46;;;;;;;;;;;;;;;;;;5072753;28;1195;-74
2022/03/24 09:30:18;;;;;;;;;;;;;;;;;;5089699;28;1207;-73
2022/03/24 09:32:45;;;;;;;;;;;;;;;;;;5094030;28;1120;-73
2022/03/24 09:35:12;;;;;;;;;;;;;;;;;;5085197;28;1219;-72
2022/03/24 09:37:37;;;;;;;;;;;;;;;;;;5086229;28;1972;-72
2022/03/24 09:40:05;;;;;;;;;;;;;;;;;;5088048;28;1267;-73
2022/03/24 09:42:30;;;;;;;;;;;;;;;;;;5085526;28;1215;-73
2022/03/24 09:44:57;;;;;;;;;;;;;;;;;;5083264;28;1140;-73
2022/03/24 09:47:25;;;;;;;;;;;;;;;;;;5060221;28;1181;-73
2022/03/24 09:49:50;;;;;;;;;;;;;;;;;;5066231;28;1140;-73
2022/03/24 09:52:16;;;;;;;;;;;;;;;;;;5065627;28;1145;-73
2022/03/24 09:54:46;;;;;;;;;;;;;;;;;;5049878;28;1181;-73
2022/03/24 09:57:15;;;;;;;;;;;;;;;;;;5068283;28;1961;-73
2022/03/24 09:59:41;;;;;;;;;;;;;;;;;;5070053;28;1179;-72
2022/03/24 10:02:07;;;;;;;;;;;;;;;;;;5059994;28;1159;-73
2022/03/24 10:04:52;;;;;;;;;;;;;;;;;;5062515;28;1164;-73
2022/03/24 10:07:19;;;;;;;;;;;;;;;;;;5063242;28;1247;-73
2022/03/24 10:09:49;;;;;;;;;;;;;;;;;;5065973;28;1475;-74
2022/03/24 10:12:25;;;;;;;;;;;;;;;;;;5066598;28;1212;-74
2022/03/24 10:14:56;;;;;;;;;;;;;;;;;;5066342;28;1179;-72
2022/03/24 10:17:21;;;;;;;;;;;;;;;;;;5059806;28;1898;-73
2022/03/24 10:20:00;;;;;;;;;;;;;;;;;;5064092;28;1168;-72
2022/03/24 10:22:26;;;;;;;;;;;;;;;;;;5064349;28;1253;-74
2022/03/24 10:24:52;;;;;;;;;;;;;;;;;;5086821;28;1132;-73
2022/03/24 10:27:21;;;;;;;;;;;;;;;;;;5083921;28;1215;-74
2022/03/24 10:29:47;;;;;;;;;;;;;;;;;;5086781;28;1139;-74
2022/03/24 10:32:19;;;;;;;;;;;;;;;;;;5080485;28;1147;-74
2022/03/24 10:34:50;;;;;;;;;;;;;;;;;;5082586;28;1490;-75
2022/03/24 10:37:17;;;;;;;;;;;;;;;;;;5082868;28;1965;-75
2022/03/24 10:40:05;;;;;;;;;;;;;;;;;;5084413;28;1144;-74
2022/03/24 10:42:31;;;;;;;;;;;;;;;;;;5082199;28;1177;-74
2022/03/24 10:45:08;;;;;;;;;;;;;;;;;;5119174;27;1510;-74
2022/03/24 10:47:42;;;;;;;;;;;;;;;;;;5077052;28;1147;-74
2022/03/24 10:50:23;;;;;;;;;;;;;;;;;;5061684;28;1352;-73
2022/03/24 10:52:49;;;;;;;;;;;;;;;;;;5065277;28;1183;-73
2022/03/24 10:55:19;;;;;;;;;;;;;;;;;;5063909;28;1331;-74
2022/03/24 10:57:45;;;;;;;;;;;;;;;;;;5063019;28;1937;-74
2022/03/24 11:00:11;;;;;;;;;;;;;;;;;;5063371;28;1184;-72
2022/03/24 11:02:37;;;;;;;;;;;;;;;;;;5056913;28;1234;-73
2022/03/24 11:05:02;;;;;;;;;;;;;;;;;;5061302;28;1432;-73
2022/03/24 11:07:28;;;;;;;;;;;;;;;;;;5061366;28;1231;-72
2022/03/24 11:09:53;;;;;;;;;;;;;;;;;;5063148;28;1172;-73
2022/03/24 11:12:26;;;;;;;;;;;;;;;;;;5065091;28;1172;-73
2022/03/24 11:14:54;;;;;;;;;;;;;;;;;;5063368;28;1811;-74
2022/03/24 11:17:23;;;;;;;;;;;;;;;;;;5058011;28;1952;-74
2022/03/24 11:20:02;;;;;;;;;;;;;;;;;;5044425;28;1044;-74
2022/03/24 11:22:36;;;;;;;;;;;;;;;;;;5061175;28;1264;-74
2022/03/24 11:25:01;;;;;;;;;;;;;;;;;;5062713;28;1124;-73
2022/03/24 11:27:27;;;;;;;;;;;;;;;;;;5061764;28;1176;-75
2022/03/24 11:29:53;;;;;;;;;;;;;;;;;;5065082;28;1160;-75
2022/03/24 11:32:20;;;;;;;;;;;;;;;;;;5059107;28;1171;-75
2022/03/24 11:34:46;;;;;;;;;;;;;;;;;;5067904;28;1209;-74
2022/03/24 11:37:11;;;;;;;;;;;;;;;;;;5083966;28;1909;-75
2022/03/24 11:39:36;;;;;;;;;;;;;;;;;;5080599;28;1124;-75
2022/03/24 11:42:02;;;;;;;;;;;;;;;;;;5070702;28;1160;-75
2022/03/24 11:44:43;;;;;;;;;;;;;;;;;;5060785;28;1230;-75
2022/03/24 11:47:14;;;;;;;;;;;;;;;;;;5058960;28;1328;-75
2022/03/24 11:49:39;;;;;;;;;;;;;;;;;;5059661;28;1221;-74
2022/03/24 11:52:04;;;;;;;;;;;;;;;;;;5064446;28;1274;-76
2022/03/24 11:54:31;;;;;;;;;;;;;;;;;;5080995;28;1215;-74
2022/03/24 11:57:15;;;;;;;;;;;;;;;;;;5083885;28;1894;-73
2022/03/24 11:59:40;;;;;;;;;;;;;;;;;;5084186;28;1190;-75
2022/03/24 12:02:13;;;;;;;;;;;;;;;;;;5062296;28;1253;-74
2022/03/24 12:04:58;;;;;;;;;;;;;;;;;;5081907;28;1096;-74
2022/03/24 12:07:29;;;;;;;;;;;;;;;;;;5082864;28;1238;-74
2022/03/24 12:09:55;;;;;;;;;;;;;;;;;;5074585;28;1351;-75
2022/03/24 12:12:20;;;;;;;;;;;;;;;;;;5064800;28;1195;-74
2022/03/24 12:14:47;;;;;;;;;;;;;;;;;;5071629;28;1152;-74
2022/03/24 12:17:31;;;;;;;;;;;;;;;;;;5066180;28;1885;-74
2022/03/24 12:20:15;;;;;;;;;;;;;;;;;;5067428;28;1180;-74
2022/03/24 12:22:42;;;;;;;;;;;;;;;;;;5066492;28;1120;-74
2022/03/24 12:25:10;;;;;;;;;;;;;;;;;;5069596;28;1190;-75
2022/03/24 12:27:56;;;;;;;;;;;;;;;;;;5066683;28;1144;-75
2022/03/24 12:30:21;;;;;;;;;;;;;;;;;;5067843;28;1261;-74
2022/03/24 12:33:06;;;;;;;;;;;;;;;;;;5061869;28;1116;-74
2022/03/24 12:35:47;;;;;;;;;;;;;;;;;;5067611;28;1202;-74
2022/03/24 12:38:32;;;;;;;;;;;;;;;;;;5090989;28;1905;-74
2022/03/24 12:41:04;;;;;;;;;;;;;;;;;;5087805;28;1492;-74
2022/03/24 12:43:38;;;;;;;;;;;;;;;;;;5086779;28;1231;-74
2022/03/24 12:46:18;;;;;;;;;;;;;;;;;;5074473;28;1352;-73
2022/03/24 12:48:44;;;;;;;;;;;;;;;;;;5062964;28;1327;-74
2022/03/24 12:51:16;;;;;;;;;;;;;;;;;;5069088;28;1152;-74
2022/03/24 12:54:08;;;;;;;;;;;;;;;;;;5065986;28;1172;-73
2022/03/24 12:56:33;;;;;;;;;;;;;;;;;;5064973;28;1897;-74
2022/03/24 12:59:05;;;;;;;;;;;;;;;;;;5076551;28;1156;-74
2022/03/24 13:01:31;;;;;;;;;;;;;;;;;;5072933;28;1131;-74
2022/03/24 13:04:05;;;;;;;;;;;;;;;;;;5063529;28;1177;-73
2022/03/24 13:06:30;;;;;;;;;;;;;;;;;;5087065;28;1160;-75
2022/03/24 13:09:14;;;;;;;;;;;;;;;;;;5067510;28;1252;-74
2022/03/24 13:12:06;;;;;;;;;;;;;;;;;;5066035;28;1104;-73
2022/03/24 13:14:33;;;;;;;;;;;;;;;;;;5066343;28;1180;-73
2022/03/24 13:17:12;;;;;;;;;;;;;;;;;;5069976;28;2001;-74
2022/03/24 13:19:38;;;;;;;;;;;;;;;;;;5065843;28;1237;-75
2022/03/24 13:22:09;;;;;;;;;;;;;;;;;;5081632;28;1177;-74
2022/03/24 13:24:35;;;;;;;;;;;;;;;;;;5064385;28;1485;-74
2022/03/24 13:27:01;;;;;;;;;;;;;;;;;;5064683;28;1308;-74
2022/03/24 13:29:35;;;;;;;;;;;;;;;;;;5067001;28;1132;-74
2022/03/24 13:32:07;;;;;;;;;;;;;;;;;;5063122;28;1342;-75
2022/03/24 13:34:33;;;;;;;;;;;;;;;;;;5073088;28;1187;-75
2022/03/24 13:37:09;;;;;;;;;;;;;;;;;;5067909;28;1914;-75
2022/03/24 13:39:36;;;;;;;;;;;;;;;;;;5085666;28;1104;-74
2022/03/24 13:42:01;;;;;;;;;;;;;;;;;;5067676;28;1646;-74
2022/03/24 13:44:27;;;;;;;;;;;;;;;;;;5068709;28;1476;-74
2022/03/24 13:46:54;;;;;;;;;;;;;;;;;;5055176;28;1172;-75
2022/03/24 13:49:20;;;;;;;;;;;;;;;;;;5071222;28;1261;-76
2022/03/24 13:51:45;;;;;;;;;;;;;;;;;;5066253;28;1255;-74
2022/03/24 13:54:17;;;;;;;;;;;;;;;;;;5086996;28;1148;-75
2022/03/24 13:56:43;;;;;;;;;;;;;;;;;;5084161;28;1885;-74
2022/03/24 13:59:08;;;;;;;;;;;;;;;;;;5051395;28;1496;-74
2022/03/24 14:01:36;;;;;;;;;;;;;;;;;;5067304;28;1434;-74
2022/03/24 14:04:15;;;;;;;;;;;;;;;;;;5083246;28;1191;-76
2022/03/24 14:06:40;;;;;;;;;;;;;;;;;;5086163;28;1272;-75
2022/03/24 14:09:05;;;;;;;;;;;;;;;;;;5106269;28;1163;-75
2022/03/24 14:11:35;;;;;;;;;;;;;;;;;;5087471;28;1175;-76
2022/03/24 14:14:08;;;;;;;;;;;;;;;;;;5070137;28;1168;-75
2022/03/24 14:16:43;;;;;;;;;;;;;;;;;;5104489;28;1937;-75
2022/03/24 14:19:17;;;;;;;;;;;;;;;;;;5082925;28;1337;-73
2022/03/24 14:21:46;;;;;;;;;;;;;;;;;;5105277;28;1007;-73
2022/03/24 14:24:27;;;;;;;;;;;;;;;;;;5087629;28;1271;-74
2022/03/24 14:27:03;;;;;;;;;;;;;;;;;;5104079;28;1131;-73
2022/03/24 14:29:29;;;;;;;;;;;;;;;;;;5106082;28;1238;-73
2022/03/24 14:32:07;;;;;;;;;;;;;;;;;;5082499;28;1277;-74
2022/03/24 14:34:37;;;;;;;;;;;;;;;;;;5087006;28;1207;-73
2022/03/24 14:37:11;;;;;;;;;;;;;;;;;;5085713;28;2010;-72
2022/03/24 14:39:57;;;;;;;;;;;;;;;;;;5079009;28;1381;-73
2022/03/24 14:42:22;;;;;;;;;;;;;;;;;;5067307;28;1404;-73
2022/03/24 14:44:48;;;;;;;;;;;;;;;;;;5066517;28;1105;-74
2022/03/24 14:47:13;;;;;;;;;;;;;;;;;;5067266;28;1288;-74
2022/03/24 14:49:38;;;;;;;;;;;;;;;;;;5068649;28;1410;-73
2022/03/24 14:52:04;;;;;;;;;;;;;;;;;;5103872;28;1215;-74
2022/03/24 14:54:29;;;;;;;;;;;;;;;;;;5086983;28;1372;-74
2022/03/24 14:56:55;;;;;;;;;;;;;;;;;;5084566;28;1894;-74
2022/03/24 14:59:20;;;;;;;;;;;;;;;;;;5087540;28;1400;-73
2022/03/24 15:01:55;;;;;;;;;;;;;;;;;;5073784;28;1076;-74
2022/03/24 15:04:20;;;;;;;;;;;;;;;;;;5065178;28;1574;-76
2022/03/24 15:06:46;;;;;;;;;;;;;;;;;;5063874;28;1278;-76
2022/03/24 15:09:11;;;;;;;;;;;;;;;;;;5086267;28;1128;-80
2022/03/24 15:11:40;;;;;;;;;;;;;;;;;;5065240;28;1180;-78
2022/03/24 15:16:56;;;;;;;;;;;;;;;;;;5091808;28;1889;-79
2022/03/24 15:19:22;;;;;;;;;;;;;;;;;;5085092;28;1277;-79
2022/03/24 15:21:47;;;;;;;;;;;;;;;;;;5092459;28;1123;-78
2022/03/24 15:24:13;;;;;;;;;;;;;;;;;;5066840;28;1341;-78
2022/03/24 15:26:42;;;;;;;;;;;;;;;;;;5069667;28;1313;-79
2022/03/24 15:29:09;;;;;;;;;;;;;;;;;;5087154;28;1264;-74
2022/03/24 15:31:35;;;;;;;;;;;;;;;;;;5103377;28;1055;-74
2022/03/24 15:34:00;;;;;;;;;;;;;;;;;;5089648;28;1394;-75
2022/03/24 15:36:25;;;;;;;;;;;;;;;;;;5068995;28;1910;-75
2022/03/24 15:38:51;;;;;;;;;;;;;;;;;;5084581;28;1163;-75
2022/03/24 15:41:16;;;;;;;;;;;;;;;;;;5086803;28;1114;-74
2022/03/24 15:43:45;;;;;;;;;;;;;;;;;;5104410;28;1167;-75
2022/03/24 15:46:10;;;;;;;;;;;;;;;;;;5086133;28;1148;-75
2022/03/24 15:48:35;;;;;;;;;;;;;;;;;;5091814;28;1148;-75
2022/03/24 15:51:01;;;;;;;;;;;;;;;;;;5067926;28;1364;-75
2022/03/24 15:53:26;;;;;;;;;;;;;;;;;;5104499;28;1183;-74
2022/03/24 15:55:51;;;;;;;;;;;;;;;;;;5083576;28;1401;-75
2022/03/24 15:58:20;;;;;;;;;;;;;;;;;;5086791;28;1890;-75
2022/03/24 16:00:45;;;;;;;;;;;;;;;;;;5066855;28;1267;-75
2022/03/24 16:03:11;;;;;;;;;;;;;;;;;;5070364;28;1184;-75
2022/03/24 16:05:37;;;;;;;;;;;;;;;;;;5104542;28;1048;-74
2022/03/24 16:08:06;;;;;;;;;;;;;;;;;;5084395;28;1163;-73
2022/03/24 16:10:31;;;;;;;;;;;;;;;;;;5085986;28;1221;-74
2022/03/24 16:12:57;;;;;;;;;;;;;;;;;;5068510;28;1197;-74
2022/03/24 16:15:22;;;;;;;;;;;;;;;;;;5069682;28;1317;-74
2022/03/24 16:17:47;;;;;;;;;;;;;;;;;;5081613;28;1975;-73
2022/03/24 16:20:12;;;;;;;;;;;;;;;;;;5084511;28;1302;-74
2022/03/24 16:22:38;;;;;;;;;;;;;;;;;;5068591;28;1184;-74
2022/03/24 16:25:04;;;;;;;;;;;;;;;;;;5067889;28;1313;-75
2022/03/24 16:27:30;;;;;;;;;;;;;;;;;;5104000;28;1139;-74
2022/03/24 16:29:55;;;;;;;;;;;;;;;;;;5102481;28;1155;-74
2022/03/24 16:32:20;;;;;;;;;;;;;;;;;;5095546;28;1128;-74
2022/03/24 16:34:46;;;;;;;;;;;;;;;;;;5103364;28;1124;-74
2022/03/24 16:37:11;;;;;;;;;;;;;;;;;;5085411;28;1971;-73
2022/03/24 16:39:37;;;;;;;;;;;;;;;;;;5082149;28;1166;-73
2022/03/24 16:42:03;;;;;;;;;;;;;;;;;;5060419;28;1172;-74
2022/03/24 16:44:28;;;;;;;;;;;;;;;;;;5061696;28;1179;-73
2022/03/24 16:46:57;;;;;;;;;;;;;;;;;;5057356;28;1152;-74
2022/03/24 16:49:22;;;;;;;;;;;;;;;;;;5056831;28;1389;-73
2022/03/24 16:51:48;;;;;;;;;;;;;;;;;;5073012;28;1210;-74
2022/03/24 16:54:14;;;;;;;;;;;;;;;;;;5064930;28;1251;-73
2022/03/24 16:56:39;;;;;;;;;;;;;;;;;;5078432;28;1952;-74
2022/03/24 16:59:06;;;;;;;;;;;;;;;;;;5081852;28;1179;-74
2022/03/24 17:01:31;;;;;;;;;;;;;;;;;;5101087;28;1124;-74
2022/03/24 17:03:58;;;;;;;;;;;;;;;;;;5099907;28;1176;-74
2022/03/24 17:06:24;;;;;;;;;;;;;;;;;;5085540;28;1207;-74